sensor_id;sensor_type;location;lat;lon;timestamp;P1;durP1;ratioP1;P2;durP2;ratioP2
38208;SDS011;24016;52.102;11.584;2024-03-07T00:00:13;18.85;;;13.90;;
38208;SDS011;24016;52.102;11.584;2024-03-07T00:02:46;22.70;;;14.32;;
38208;SDS011;24016;52.102;11.584;2024-03-07T00:05:15;20.73;;;14.38;;
38208;SDS011;24016;52.102;11.584;2024-03-07T00:07:42;23.00;;;14.25;;
38208;SDS011;24016;52.102;11.584;2024-03-07T00:10:08;20.05;;;14.32;;
38208;SDS011;24016;52.102;11.584;2024-03-07T00:12:34;18.48;;;14.23;;
38208;SDS011;24016;52.102;11.584;2024-03-07T00:15:02;23.42;;;13.77;;
38208;SDS011;24016;52.102;11.584;2024-03-07T00:17:28;21.88;;;14.98;;
38208;SDS011;24016;52.102;11.584;2024-03-07T00:19:54;20.95;;;14.80;;
38208;SDS011;24016;52.102;11.584;2024-03-07T00:22:19;22.33;;;14.40;;
38208;SDS011;24016;52.102;11.584;2024-03-07T00:24:45;19.75;;;13.65;;
38208;SDS011;24016;52.102;11.584;2024-03-07T00:27:12;21.67;;;15.02;;
38208;SDS011;24016;52.102;11.584;2024-03-07T00:29:42;20.73;;;14.50;;
38208;SDS011;24016;52.102;11.584;2024-03-07T00:32:07;21.92;;;14.77;;
38208;SDS011;24016;52.102;11.584;2024-03-07T00:34:34;21.95;;;15.10;;
38208;SDS011;24016;52.102;11.584;2024-03-07T00:37:00;20.02;;;15.40;;
38208;SDS011;24016;52.102;11.584;2024-03-07T00:39:26;20.58;;;14.27;;
38208;SDS011;24016;52.102;11.584;2024-03-07T00:41:51;23.90;;;14.88;;
38208;SDS011;24016;52.102;11.584;2024-03-07T00:44:17;19.65;;;14.50;;
38208;SDS011;24016;52.102;11.584;2024-03-07T00:46:42;20.75;;;15.10;;
38208;SDS011;24016;52.102;11.584;2024-03-07T00:49:08;22.52;;;15.60;;
38208;SDS011;24016;52.102;11.584;2024-03-07T00:51:34;22.45;;;15.35;;
38208;SDS011;24016;52.102;11.584;2024-03-07T00:53:59;21.30;;;14.68;;
38208;SDS011;24016;52.102;11.584;2024-03-07T00:56:25;21.05;;;15.82;;
38208;SDS011;24016;52.102;11.584;2024-03-07T00:58:51;26.27;;;15.95;;
38208;SDS011;24016;52.102;11.584;2024-03-07T01:01:16;21.63;;;14.90;;
38208;SDS011;24016;52.102;11.584;2024-03-07T01:03:43;21.40;;;16.35;;
38208;SDS011;24016;52.102;11.584;2024-03-07T01:06:09;20.75;;;13.75;;
38208;SDS011;24016;52.102;11.584;2024-03-07T01:08:35;22.52;;;15.23;;
38208;SDS011;24016;52.102;11.584;2024-03-07T01:11:02;22.80;;;15.40;;
38208;SDS011;24016;52.102;11.584;2024-03-07T01:13:36;26.88;;;17.05;;
38208;SDS011;24016;52.102;11.584;2024-03-07T01:16:02;21.80;;;15.43;;
38208;SDS011;24016;52.102;11.584;2024-03-07T01:18:27;19.90;;;14.60;;
38208;SDS011;24016;52.102;11.584;2024-03-07T01:20:53;21.98;;;15.57;;
38208;SDS011;24016;52.102;11.584;2024-03-07T01:23:19;22.02;;;16.38;;
38208;SDS011;24016;52.102;11.584;2024-03-07T01:25:45;24.42;;;16.48;;
38208;SDS011;24016;52.102;11.584;2024-03-07T01:28:11;21.60;;;15.80;;
38208;SDS011;24016;52.102;11.584;2024-03-07T01:30:38;24.38;;;16.08;;
38208;SDS011;24016;52.102;11.584;2024-03-07T01:33:04;24.00;;;15.43;;
38208;SDS011;24016;52.102;11.584;2024-03-07T01:35:29;24.25;;;16.33;;
38208;SDS011;24016;52.102;11.584;2024-03-07T01:37:55;27.23;;;16.45;;
38208;SDS011;24016;52.102;11.584;2024-03-07T01:40:21;24.40;;;17.38;;
38208;SDS011;24016;52.102;11.584;2024-03-07T01:42:48;24.25;;;15.68;;
38208;SDS011;24016;52.102;11.584;2024-03-07T01:45:15;26.45;;;17.17;;
38208;SDS011;24016;52.102;11.584;2024-03-07T01:47:43;25.17;;;16.48;;
38208;SDS011;24016;52.102;11.584;2024-03-07T01:50:09;24.52;;;16.35;;
38208;SDS011;24016;52.102;11.584;2024-03-07T01:52:35;22.63;;;15.65;;
38208;SDS011;24016;52.102;11.584;2024-03-07T01:55:03;23.77;;;16.92;;
38208;SDS011;24016;52.102;11.584;2024-03-07T01:57:29;25.10;;;17.08;;
38208;SDS011;24016;52.102;11.584;2024-03-07T01:59:54;24.50;;;16.17;;
38208;SDS011;24016;52.102;11.584;2024-03-07T02:02:22;23.10;;;16.23;;
38208;SDS011;24016;52.102;11.584;2024-03-07T02:04:47;23.02;;;15.25;;
38208;SDS011;24016;52.102;11.584;2024-03-07T02:07:13;23.92;;;16.48;;
38208;SDS011;24016;52.102;11.584;2024-03-07T02:09:38;22.58;;;16.10;;
38208;SDS011;24016;52.102;11.584;2024-03-07T02:12:04;22.90;;;16.25;;
38208;SDS011;24016;52.102;11.584;2024-03-07T02:14:30;22.42;;;16.05;;
38208;SDS011;24016;52.102;11.584;2024-03-07T02:16:56;24.13;;;17.05;;
38208;SDS011;24016;52.102;11.584;2024-03-07T02:19:22;23.92;;;16.52;;
38208;SDS011;24016;52.102;11.584;2024-03-07T02:21:48;21.08;;;14.90;;
38208;SDS011;24016;52.102;11.584;2024-03-07T02:24:13;25.33;;;15.90;;
38208;SDS011;24016;52.102;11.584;2024-03-07T02:26:40;22.67;;;15.52;;
38208;SDS011;24016;52.102;11.584;2024-03-07T02:29:06;27.10;;;16.38;;
38208;SDS011;24016;52.102;11.584;2024-03-07T02:34:04;24.38;;;16.92;;
38208;SDS011;24016;52.102;11.584;2024-03-07T02:36:33;25.55;;;16.48;;
38208;SDS011;24016;52.102;11.584;2024-03-07T02:38:59;26.55;;;17.60;;
38208;SDS011;24016;52.102;11.584;2024-03-07T02:41:25;27.52;;;17.58;;
38208;SDS011;24016;52.102;11.584;2024-03-07T02:43:51;26.33;;;18.05;;
38208;SDS011;24016;52.102;11.584;2024-03-07T02:46:17;28.10;;;17.70;;
38208;SDS011;24016;52.102;11.584;2024-03-07T02:48:46;26.75;;;17.55;;
38208;SDS011;24016;52.102;11.584;2024-03-07T02:51:11;29.08;;;18.00;;
38208;SDS011;24016;52.102;11.584;2024-03-07T02:53:38;27.90;;;18.08;;
38208;SDS011;24016;52.102;11.584;2024-03-07T02:56:07;28.52;;;17.88;;
38208;SDS011;24016;52.102;11.584;2024-03-07T02:58:34;31.48;;;19.27;;
38208;SDS011;24016;52.102;11.584;2024-03-07T03:01:01;33.55;;;20.13;;
38208;SDS011;24016;52.102;11.584;2024-03-07T03:03:31;30.00;;;18.33;;
38208;SDS011;24016;52.102;11.584;2024-03-07T03:05:57;28.80;;;19.55;;
38208;SDS011;24016;52.102;11.584;2024-03-07T03:08:27;34.50;;;19.13;;
38208;SDS011;24016;52.102;11.584;2024-03-07T03:10:54;37.63;;;19.67;;
38208;SDS011;24016;52.102;11.584;2024-03-07T03:13:23;32.20;;;19.92;;
38208;SDS011;24016;52.102;11.584;2024-03-07T03:15:53;33.90;;;21.80;;
38208;SDS011;24016;52.102;11.584;2024-03-07T03:18:21;32.22;;;20.48;;
38208;SDS011;24016;52.102;11.584;2024-03-07T03:20:48;36.63;;;19.55;;
38208;SDS011;24016;52.102;11.584;2024-03-07T03:23:14;35.28;;;21.30;;
38208;SDS011;24016;52.102;11.584;2024-03-07T03:25:41;36.00;;;20.83;;
38208;SDS011;24016;52.102;11.584;2024-03-07T03:28:10;35.22;;;21.20;;
38208;SDS011;24016;52.102;11.584;2024-03-07T03:30:38;34.22;;;19.95;;
38208;SDS011;24016;52.102;11.584;2024-03-07T03:33:07;36.42;;;21.73;;
38208;SDS011;24016;52.102;11.584;2024-03-07T03:35:33;40.42;;;22.35;;
38208;SDS011;24016;52.102;11.584;2024-03-07T03:37:59;41.50;;;22.63;;
38208;SDS011;24016;52.102;11.584;2024-03-07T03:40:26;39.20;;;21.67;;
38208;SDS011;24016;52.102;11.584;2024-03-07T03:42:52;40.88;;;21.50;;
38208;SDS011;24016;52.102;11.584;2024-03-07T03:45:18;41.70;;;23.25;;
38208;SDS011;24016;52.102;11.584;2024-03-07T03:47:45;40.67;;;23.15;;
38208;SDS011;24016;52.102;11.584;2024-03-07T03:50:13;43.80;;;23.60;;
38208;SDS011;24016;52.102;11.584;2024-03-07T03:52:41;42.20;;;23.58;;
38208;SDS011;24016;52.102;11.584;2024-03-07T03:55:10;46.78;;;24.40;;
38208;SDS011;24016;52.102;11.584;2024-03-07T03:57:37;46.95;;;25.52;;
38208;SDS011;24016;52.102;11.584;2024-03-07T04:00:05;44.38;;;25.02;;
38208;SDS011;24016;52.102;11.584;2024-03-07T04:02:40;46.70;;;24.50;;
38208;SDS011;24016;52.102;11.584;2024-03-07T04:05:09;47.40;;;24.75;;
38208;SDS011;24016;52.102;11.584;2024-03-07T04:07:37;46.15;;;24.80;;
38208;SDS011;24016;52.102;11.584;2024-03-07T04:10:03;53.60;;;27.05;;
38208;SDS011;24016;52.102;11.584;2024-03-07T04:12:40;46.73;;;26.20;;
38208;SDS011;24016;52.102;11.584;2024-03-07T04:15:11;53.95;;;25.83;;
38208;SDS011;24016;52.102;11.584;2024-03-07T04:17:39;49.78;;;25.60;;
38208;SDS011;24016;52.102;11.584;2024-03-07T04:20:12;50.20;;;25.50;;
38208;SDS011;24016;52.102;11.584;2024-03-07T04:22:42;53.13;;;26.47;;
38208;SDS011;24016;52.102;11.584;2024-03-07T04:25:11;56.00;;;26.55;;
38208;SDS011;24016;52.102;11.584;2024-03-07T04:27:37;55.90;;;28.77;;
38208;SDS011;24016;52.102;11.584;2024-03-07T04:30:05;58.50;;;27.60;;
38208;SDS011;24016;52.102;11.584;2024-03-07T04:32:33;61.33;;;27.27;;
38208;SDS011;24016;52.102;11.584;2024-03-07T04:35:08;60.72;;;27.23;;
38208;SDS011;24016;52.102;11.584;2024-03-07T04:37:36;56.70;;;27.83;;
38208;SDS011;24016;52.102;11.584;2024-03-07T04:40:05;64.05;;;30.13;;
38208;SDS011;24016;52.102;11.584;2024-03-07T04:42:47;61.28;;;30.13;;
38208;SDS011;24016;52.102;11.584;2024-03-07T04:45:16;64.00;;;29.77;;
38208;SDS011;24016;52.102;11.584;2024-03-07T04:47:42;68.75;;;30.58;;
38208;SDS011;24016;52.102;11.584;2024-03-07T04:50:09;72.85;;;31.17;;
38208;SDS011;24016;52.102;11.584;2024-03-07T04:52:36;71.10;;;30.33;;
38208;SDS011;24016;52.102;11.584;2024-03-07T04:55:08;69.93;;;30.95;;
38208;SDS011;24016;52.102;11.584;2024-03-07T04:57:35;83.93;;;33.47;;
38208;SDS011;24016;52.102;11.584;2024-03-07T05:00:01;81.72;;;32.92;;
38208;SDS011;24016;52.102;11.584;2024-03-07T05:02:32;83.13;;;32.75;;
38208;SDS011;24016;52.102;11.584;2024-03-07T05:04:58;85.65;;;33.88;;
38208;SDS011;24016;52.102;11.584;2024-03-07T05:07:24;85.15;;;35.00;;
38208;SDS011;24016;52.102;11.584;2024-03-07T05:09:49;88.22;;;33.83;;
38208;SDS011;24016;52.102;11.584;2024-03-07T05:12:15;77.97;;;32.00;;
38208;SDS011;24016;52.102;11.584;2024-03-07T05:14:40;85.38;;;33.55;;
38208;SDS011;24016;52.102;11.584;2024-03-07T05:17:06;71.15;;;30.48;;
38208;SDS011;24016;52.102;11.584;2024-03-07T05:19:33;84.07;;;33.13;;
38208;SDS011;24016;52.102;11.584;2024-03-07T05:22:00;76.47;;;30.80;;
38208;SDS011;24016;52.102;11.584;2024-03-07T05:24:26;74.88;;;32.47;;
38208;SDS011;24016;52.102;11.584;2024-03-07T05:26:52;82.78;;;32.95;;
38208;SDS011;24016;52.102;11.584;2024-03-07T05:29:19;86.13;;;32.22;;
38208;SDS011;24016;52.102;11.584;2024-03-07T05:31:45;81.05;;;31.58;;
38208;SDS011;24016;52.102;11.584;2024-03-07T05:34:14;93.03;;;32.67;;
38208;SDS011;24016;52.102;11.584;2024-03-07T05:36:48;92.93;;;34.20;;
38208;SDS011;24016;52.102;11.584;2024-03-07T05:39:15;93.25;;;33.70;;
38208;SDS011;24016;52.102;11.584;2024-03-07T05:41:42;86.45;;;33.20;;
38208;SDS011;24016;52.102;11.584;2024-03-07T05:44:11;92.60;;;34.42;;
38208;SDS011;24016;52.102;11.584;2024-03-07T05:46:38;92.75;;;32.10;;
38208;SDS011;24016;52.102;11.584;2024-03-07T05:49:10;97.30;;;32.65;;
38208;SDS011;24016;52.102;11.584;2024-03-07T05:51:35;95.00;;;33.33;;
38208;SDS011;24016;52.102;11.584;2024-03-07T05:54:01;88.80;;;33.80;;
38208;SDS011;24016;52.102;11.584;2024-03-07T05:56:31;90.05;;;34.08;;
38208;SDS011;24016;52.102;11.584;2024-03-07T05:59:03;92.05;;;34.45;;
38208;SDS011;24016;52.102;11.584;2024-03-07T06:01:35;85.53;;;32.33;;
38208;SDS011;24016;52.102;11.584;2024-03-07T06:04:01;86.60;;;32.13;;
38208;SDS011;24016;52.102;11.584;2024-03-07T06:06:28;99.05;;;34.80;;
38208;SDS011;24016;52.102;11.584;2024-03-07T06:08:56;97.80;;;34.78;;
38208;SDS011;24016;52.102;11.584;2024-03-07T06:11:22;95.38;;;33.38;;
38208;SDS011;24016;52.102;11.584;2024-03-07T06:13:48;88.95;;;32.85;;
38208;SDS011;24016;52.102;11.584;2024-03-07T06:16:13;90.18;;;34.13;;
38208;SDS011;24016;52.102;11.584;2024-03-07T06:18:42;84.45;;;31.70;;
38208;SDS011;24016;52.102;11.584;2024-03-07T06:21:08;85.43;;;33.22;;
38208;SDS011;24016;52.102;11.584;2024-03-07T06:23:33;98.57;;;33.10;;
38208;SDS011;24016;52.102;11.584;2024-03-07T06:25:59;85.68;;;32.90;;
38208;SDS011;24016;52.102;11.584;2024-03-07T06:28:26;85.97;;;34.22;;
38208;SDS011;24016;52.102;11.584;2024-03-07T06:30:53;95.20;;;32.00;;
38208;SDS011;24016;52.102;11.584;2024-03-07T06:33:20;85.78;;;33.55;;
38208;SDS011;24016;52.102;11.584;2024-03-07T06:35:46;87.88;;;33.42;;
38208;SDS011;24016;52.102;11.584;2024-03-07T06:38:11;89.38;;;33.88;;
38208;SDS011;24016;52.102;11.584;2024-03-07T06:40:41;85.97;;;34.05;;
38208;SDS011;24016;52.102;11.584;2024-03-07T06:43:09;85.13;;;32.83;;
38208;SDS011;24016;52.102;11.584;2024-03-07T06:45:36;76.18;;;32.53;;
38208;SDS011;24016;52.102;11.584;2024-03-07T06:48:08;73.13;;;33.53;;
38208;SDS011;24016;52.102;11.584;2024-03-07T06:50:34;74.97;;;31.77;;
38208;SDS011;24016;52.102;11.584;2024-03-07T06:53:00;84.85;;;33.17;;
38208;SDS011;24016;52.102;11.584;2024-03-07T06:55:26;69.25;;;32.30;;
38208;SDS011;24016;52.102;11.584;2024-03-07T06:57:52;70.63;;;31.98;;
38208;SDS011;24016;52.102;11.584;2024-03-07T07:00:18;70.60;;;32.58;;
38208;SDS011;24016;52.102;11.584;2024-03-07T07:02:45;79.63;;;32.35;;
38208;SDS011;24016;52.102;11.584;2024-03-07T07:05:11;77.85;;;31.23;;
38208;SDS011;24016;52.102;11.584;2024-03-07T07:07:40;72.38;;;31.38;;
38208;SDS011;24016;52.102;11.584;2024-03-07T07:10:09;67.53;;;30.85;;
38208;SDS011;24016;52.102;11.584;2024-03-07T07:12:46;70.63;;;31.70;;
38208;SDS011;24016;52.102;11.584;2024-03-07T07:15:13;70.78;;;30.55;;
38208;SDS011;24016;52.102;11.584;2024-03-07T07:17:47;65.82;;;29.77;;
38208;SDS011;24016;52.102;11.584;2024-03-07T07:20:16;65.82;;;30.67;;
38208;SDS011;24016;52.102;11.584;2024-03-07T07:22:42;67.88;;;29.48;;
38208;SDS011;24016;52.102;11.584;2024-03-07T07:25:08;61.10;;;29.45;;
38208;SDS011;24016;52.102;11.584;2024-03-07T07:27:44;62.08;;;28.83;;
38208;SDS011;24016;52.102;11.584;2024-03-07T07:30:15;62.85;;;29.75;;
38208;SDS011;24016;52.102;11.584;2024-03-07T07:32:42;64.70;;;28.48;;
38208;SDS011;24016;52.102;11.584;2024-03-07T07:35:12;55.58;;;27.55;;
38208;SDS011;24016;52.102;11.584;2024-03-07T07:37:47;51.03;;;26.58;;
38208;SDS011;24016;52.102;11.584;2024-03-07T07:40:15;59.47;;;28.35;;
38208;SDS011;24016;52.102;11.584;2024-03-07T07:42:45;53.88;;;26.73;;
38208;SDS011;24016;52.102;11.584;2024-03-07T07:45:11;68.45;;;28.98;;
38208;SDS011;24016;52.102;11.584;2024-03-07T07:47:44;56.00;;;28.75;;
38208;SDS011;24016;52.102;11.584;2024-03-07T07:50:11;61.08;;;26.67;;
38208;SDS011;24016;52.102;11.584;2024-03-07T07:52:42;62.78;;;29.20;;
38208;SDS011;24016;52.102;11.584;2024-03-07T07:55:18;59.08;;;28.70;;
38208;SDS011;24016;52.102;11.584;2024-03-07T07:57:45;59.13;;;27.17;;
38208;SDS011;24016;52.102;11.584;2024-03-07T08:00:17;49.60;;;26.92;;
38208;SDS011;24016;52.102;11.584;2024-03-07T08:02:48;52.90;;;26.38;;
38208;SDS011;24016;52.102;11.584;2024-03-07T08:07:45;48.90;;;25.10;;
38208;SDS011;24016;52.102;11.584;2024-03-07T08:10:12;48.13;;;24.30;;
38208;SDS011;24016;52.102;11.584;2024-03-07T08:12:39;48.15;;;24.35;;
38208;SDS011;24016;52.102;11.584;2024-03-07T08:15:08;43.67;;;24.25;;
38208;SDS011;24016;52.102;11.584;2024-03-07T08:17:34;43.30;;;24.10;;
38208;SDS011;24016;52.102;11.584;2024-03-07T08:20:00;44.75;;;24.10;;
38208;SDS011;24016;52.102;11.584;2024-03-07T08:22:26;41.58;;;23.30;;
38208;SDS011;24016;52.102;11.584;2024-03-07T08:24:51;39.08;;;22.13;;
38208;SDS011;24016;52.102;11.584;2024-03-07T08:27:17;40.10;;;21.27;;
38208;SDS011;24016;52.102;11.584;2024-03-07T08:29:43;37.90;;;21.15;;
38208;SDS011;24016;52.102;11.584;2024-03-07T08:32:08;39.75;;;21.30;;
38208;SDS011;24016;52.102;11.584;2024-03-07T08:34:33;35.03;;;20.33;;
38208;SDS011;24016;52.102;11.584;2024-03-07T08:36:59;36.05;;;20.85;;
38208;SDS011;24016;52.102;11.584;2024-03-07T08:39:25;39.88;;;19.88;;
38208;SDS011;24016;52.102;11.584;2024-03-07T08:41:51;33.15;;;18.63;;
38208;SDS011;24016;52.102;11.584;2024-03-07T08:44:17;32.08;;;17.88;;
38208;SDS011;24016;52.102;11.584;2024-03-07T08:46:43;33.25;;;18.42;;
38208;SDS011;24016;52.102;11.584;2024-03-07T08:49:08;37.70;;;19.25;;
38208;SDS011;24016;52.102;11.584;2024-03-07T08:51:36;33.53;;;18.63;;
38208;SDS011;24016;52.102;11.584;2024-03-07T08:54:01;29.65;;;17.15;;
38208;SDS011;24016;52.102;11.584;2024-03-07T08:56:27;30.75;;;16.83;;
38208;SDS011;24016;52.102;11.584;2024-03-07T08:58:53;29.58;;;16.38;;
38208;SDS011;24016;52.102;11.584;2024-03-07T09:01:18;31.10;;;16.25;;
38208;SDS011;24016;52.102;11.584;2024-03-07T09:03:45;21.08;;;14.38;;
38208;SDS011;24016;52.102;11.584;2024-03-07T09:06:10;25.58;;;14.40;;
38208;SDS011;24016;52.102;11.584;2024-03-07T09:08:38;25.10;;;15.30;;
38208;SDS011;24016;52.102;11.584;2024-03-07T09:11:04;25.98;;;14.68;;
38208;SDS011;24016;52.102;11.584;2024-03-07T09:13:29;23.10;;;13.25;;
38208;SDS011;24016;52.102;11.584;2024-03-07T09:15:55;17.90;;;12.20;;
38208;SDS011;24016;52.102;11.584;2024-03-07T09:18:20;18.10;;;11.20;;
38208;SDS011;24016;52.102;11.584;2024-03-07T09:20:47;20.35;;;11.75;;
38208;SDS011;24016;52.102;11.584;2024-03-07T09:23:13;19.63;;;11.98;;
38208;SDS011;24016;52.102;11.584;2024-03-07T09:25:39;21.98;;;11.82;;
38208;SDS011;24016;52.102;11.584;2024-03-07T09:28:05;21.33;;;13.13;;
38208;SDS011;24016;52.102;11.584;2024-03-07T09:30:31;18.35;;;11.38;;
38208;SDS011;24016;52.102;11.584;2024-03-07T09:32:56;17.75;;;11.98;;
38208;SDS011;24016;52.102;11.584;2024-03-07T09:35:22;17.73;;;11.75;;
38208;SDS011;24016;52.102;11.584;2024-03-07T09:37:48;20.98;;;11.70;;
38208;SDS011;24016;52.102;11.584;2024-03-07T09:40:13;22.42;;;12.45;;
38208;SDS011;24016;52.102;11.584;2024-03-07T09:42:43;22.08;;;11.40;;
38208;SDS011;24016;52.102;11.584;2024-03-07T09:45:20;19.42;;;11.70;;
38208;SDS011;24016;52.102;11.584;2024-03-07T09:47:48;23.23;;;12.30;;
38208;SDS011;24016;52.102;11.584;2024-03-07T09:50:18;26.58;;;12.95;;
38208;SDS011;24016;52.102;11.584;2024-03-07T09:52:46;19.85;;;12.80;;
38208;SDS011;24016;52.102;11.584;2024-03-07T09:55:17;18.60;;;12.25;;
38208;SDS011;24016;52.102;11.584;2024-03-07T09:57:43;19.13;;;12.13;;
38208;SDS011;24016;52.102;11.584;2024-03-07T10:00:13;19.80;;;12.05;;
38208;SDS011;24016;52.102;11.584;2024-03-07T10:02:48;22.63;;;12.85;;
38208;SDS011;24016;52.102;11.584;2024-03-07T10:05:17;18.60;;;12.40;;
38208;SDS011;24016;52.102;11.584;2024-03-07T10:07:44;18.23;;;11.50;;
38208;SDS011;24016;52.102;11.584;2024-03-07T10:10:10;18.02;;;11.80;;
38208;SDS011;24016;52.102;11.584;2024-03-07T10:12:37;23.35;;;12.27;;
38208;SDS011;24016;52.102;11.584;2024-03-07T10:15:03;16.83;;;10.98;;
38208;SDS011;24016;52.102;11.584;2024-03-07T10:17:35;15.63;;;10.43;;
38208;SDS011;24016;52.102;11.584;2024-03-07T10:20:02;17.75;;;10.77;;
38208;SDS011;24016;52.102;11.584;2024-03-07T10:22:27;17.58;;;10.50;;
38208;SDS011;24016;52.102;11.584;2024-03-07T10:24:53;16.88;;;10.48;;
38208;SDS011;24016;52.102;11.584;2024-03-07T10:27:21;16.50;;;10.07;;
38208;SDS011;24016;52.102;11.584;2024-03-07T10:29:47;17.58;;;11.73;;
38208;SDS011;24016;52.102;11.584;2024-03-07T10:32:20;15.93;;;10.75;;
38208;SDS011;24016;52.102;11.584;2024-03-07T10:34:46;16.88;;;10.00;;
38208;SDS011;24016;52.102;11.584;2024-03-07T10:37:13;14.93;;;10.50;;
38208;SDS011;24016;52.102;11.584;2024-03-07T10:39:45;14.98;;;10.45;;
38208;SDS011;24016;52.102;11.584;2024-03-07T10:42:14;19.17;;;9.88;;
38208;SDS011;24016;52.102;11.584;2024-03-07T10:44:45;15.45;;;10.13;;
38208;SDS011;24016;52.102;11.584;2024-03-07T10:47:16;16.93;;;10.27;;
38208;SDS011;24016;52.102;11.584;2024-03-07T10:55:37;20.08;;;9.98;;
38208;SDS011;24016;52.102;11.584;2024-03-07T10:58:15;12.98;;;9.50;;
38208;SDS011;24016;52.102;11.584;2024-03-07T11:00:49;15.30;;;9.88;;
38208;SDS011;24016;52.102;11.584;2024-03-07T11:03:15;15.73;;;9.18;;
38208;SDS011;24016;52.102;11.584;2024-03-07T11:05:45;18.63;;;9.98;;
38208;SDS011;24016;52.102;11.584;2024-03-07T11:08:11;14.25;;;9.05;;
38208;SDS011;24016;52.102;11.584;2024-03-07T11:10:37;17.55;;;9.68;;
38208;SDS011;24016;52.102;11.584;2024-03-07T11:13:04;13.77;;;9.35;;
38208;SDS011;24016;52.102;11.584;2024-03-07T11:15:32;14.52;;;8.45;;
38208;SDS011;24016;52.102;11.584;2024-03-07T11:17:58;14.35;;;8.18;;
38208;SDS011;24016;52.102;11.584;2024-03-07T11:20:25;13.98;;;8.73;;
38208;SDS011;24016;52.102;11.584;2024-03-07T11:22:51;14.40;;;8.68;;
38208;SDS011;24016;52.102;11.584;2024-03-07T11:25:21;12.95;;;7.82;;
38208;SDS011;24016;52.102;11.584;2024-03-07T11:27:51;11.57;;;8.00;;
38208;SDS011;24016;52.102;11.584;2024-03-07T11:30:21;12.10;;;7.60;;
38208;SDS011;24016;52.102;11.584;2024-03-07T11:32:47;11.20;;;7.95;;
38208;SDS011;24016;52.102;11.584;2024-03-07T11:35:15;14.05;;;7.80;;
38208;SDS011;24016;52.102;11.584;2024-03-07T11:37:41;10.45;;;7.78;;
38208;SDS011;24016;52.102;11.584;2024-03-07T11:40:13;12.85;;;7.72;;
38208;SDS011;24016;52.102;11.584;2024-03-07T11:43:00;9.95;;;6.82;;
38208;SDS011;24016;52.102;11.584;2024-03-07T11:45:29;11.02;;;7.85;;
38208;SDS011;24016;52.102;11.584;2024-03-07T11:48:03;10.70;;;7.25;;
38208;SDS011;24016;52.102;11.584;2024-03-07T11:50:33;10.57;;;7.35;;
38208;SDS011;24016;52.102;11.584;2024-03-07T11:53:02;12.55;;;7.50;;
38208;SDS011;24016;52.102;11.584;2024-03-07T11:55:32;10.70;;;7.65;;
38208;SDS011;24016;52.102;11.584;2024-03-07T11:58:14;9.88;;;7.43;;
38208;SDS011;24016;52.102;11.584;2024-03-07T12:00:46;11.10;;;7.82;;
38208;SDS011;24016;52.102;11.584;2024-03-07T12:03:12;10.65;;;7.00;;
38208;SDS011;24016;52.102;11.584;2024-03-07T12:05:41;10.85;;;7.00;;
38208;SDS011;24016;52.102;11.584;2024-03-07T12:08:08;9.13;;;7.10;;
38208;SDS011;24016;52.102;11.584;2024-03-07T12:10:35;10.13;;;7.20;;
38208;SDS011;24016;52.102;11.584;2024-03-07T12:13:03;10.80;;;6.97;;
38208;SDS011;24016;52.102;11.584;2024-03-07T12:15:30;13.13;;;7.38;;
38208;SDS011;24016;52.102;11.584;2024-03-07T12:17:57;10.38;;;7.47;;
38208;SDS011;24016;52.102;11.584;2024-03-07T12:20:22;12.18;;;8.70;;
38208;SDS011;24016;52.102;11.584;2024-03-07T12:22:54;12.60;;;7.53;;
38208;SDS011;24016;52.102;11.584;2024-03-07T12:25:21;13.20;;;6.95;;
38208;SDS011;24016;52.102;11.584;2024-03-07T12:28:05;11.55;;;7.47;;
38208;SDS011;24016;52.102;11.584;2024-03-07T12:33:00;12.43;;;7.68;;
38208;SDS011;24016;52.102;11.584;2024-03-07T12:35:32;10.50;;;7.63;;
38208;SDS011;24016;52.102;11.584;2024-03-07T12:37:58;11.45;;;7.72;;
38208;SDS011;24016;52.102;11.584;2024-03-07T12:40:24;12.02;;;8.02;;
38208;SDS011;24016;52.102;11.584;2024-03-07T12:42:54;14.30;;;7.32;;
38208;SDS011;24016;52.102;11.584;2024-03-07T12:45:19;12.60;;;7.97;;
38208;SDS011;24016;52.102;11.584;2024-03-07T12:47:48;10.63;;;7.25;;
38208;SDS011;24016;52.102;11.584;2024-03-07T12:50:20;17.63;;;8.07;;
38208;SDS011;24016;52.102;11.584;2024-03-07T12:52:50;11.63;;;7.93;;
38208;SDS011;24016;52.102;11.584;2024-03-07T12:55:15;11.10;;;7.20;;
38208;SDS011;24016;52.102;11.584;2024-03-07T12:57:46;11.43;;;7.10;;
38208;SDS011;24016;52.102;11.584;2024-03-07T13:02:46;10.52;;;7.45;;
38208;SDS011;24016;52.102;11.584;2024-03-07T13:05:13;13.43;;;7.90;;
38208;SDS011;24016;52.102;11.584;2024-03-07T13:07:45;11.27;;;7.68;;
38208;SDS011;24016;52.102;11.584;2024-03-07T13:10:12;11.52;;;7.70;;
38208;SDS011;24016;52.102;11.584;2024-03-07T13:12:40;13.52;;;7.93;;
38208;SDS011;24016;52.102;11.584;2024-03-07T13:15:08;14.65;;;8.27;;
38208;SDS011;24016;52.102;11.584;2024-03-07T13:17:35;12.68;;;7.85;;
38208;SDS011;24016;52.102;11.584;2024-03-07T13:20:01;14.18;;;8.38;;
38208;SDS011;24016;52.102;11.584;2024-03-07T13:22:27;13.73;;;8.25;;
38208;SDS011;24016;52.102;11.584;2024-03-07T13:24:52;14.02;;;8.10;;
38208;SDS011;24016;52.102;11.584;2024-03-07T13:27:18;12.07;;;8.40;;
38208;SDS011;24016;52.102;11.584;2024-03-07T13:29:53;12.73;;;8.60;;
38208;SDS011;24016;52.102;11.584;2024-03-07T13:32:18;14.82;;;7.85;;
38208;SDS011;24016;52.102;11.584;2024-03-07T13:34:44;12.70;;;8.82;;
38208;SDS011;24016;52.102;11.584;2024-03-07T13:37:10;14.30;;;8.32;;
38208;SDS011;24016;52.102;11.584;2024-03-07T13:39:40;10.88;;;7.47;;
38208;SDS011;24016;52.102;11.584;2024-03-07T13:42:08;13.13;;;7.82;;
38208;SDS011;24016;52.102;11.584;2024-03-07T13:44:36;10.98;;;7.60;;
38208;SDS011;24016;52.102;11.584;2024-03-07T13:47:03;12.88;;;8.23;;
38208;SDS011;24016;52.102;11.584;2024-03-07T13:49:30;10.48;;;7.78;;
38208;SDS011;24016;52.102;11.584;2024-03-07T13:51:59;11.13;;;7.78;;
38208;SDS011;24016;52.102;11.584;2024-03-07T13:54:35;10.57;;;7.68;;
38208;SDS011;24016;52.102;11.584;2024-03-07T14:00:18;11.43;;;8.35;;
38208;SDS011;24016;52.102;11.584;2024-03-07T14:03:08;10.88;;;7.38;;
38208;SDS011;24016;52.102;11.584;2024-03-07T14:18:04;11.30;;;7.63;;
38208;SDS011;24016;52.102;11.584;2024-03-07T14:29:03;13.40;;;8.63;;
38208;SDS011;24016;52.102;11.584;2024-03-07T14:31:41;13.75;;;8.73;;
38208;SDS011;24016;52.102;11.584;2024-03-07T14:34:14;12.10;;;8.48;;
38208;SDS011;24016;52.102;11.584;2024-03-07T14:36:56;12.05;;;7.72;;
38208;SDS011;24016;52.102;11.584;2024-03-07T14:39:29;12.77;;;7.32;;
38208;SDS011;24016;52.102;11.584;2024-03-07T14:41:58;12.32;;;7.40;;
38208;SDS011;24016;52.102;11.584;2024-03-07T14:44:26;11.52;;;7.65;;
38208;SDS011;24016;52.102;11.584;2024-03-07T14:46:54;11.68;;;8.45;;
38208;SDS011;24016;52.102;11.584;2024-03-07T14:49:23;16.40;;;7.78;;
38208;SDS011;24016;52.102;11.584;2024-03-07T14:51:48;11.05;;;7.05;;
38208;SDS011;24016;52.102;11.584;2024-03-07T14:54:15;12.70;;;7.95;;